Oark, AR (72852)

7:33 AM CDT on October 01, 2016 (GMT -0500)
Pettigrew | | Change Station

Elev 1873 ft 35.82 °N, 93.64 °W | Updated 6 minutes ago

Clear
Clear
45.3 °F
Feels Like 45 °F
N
0.0
Wind Variable Wind from North

Today
High -- | Low -- °F
--% Chance of Precip.
Yesterday
High -- | Low -- °F
Precip. -- in
Pressure 30.11 in
Visibility 10.0 miles
Clouds Clear
Windchill 45 °F
Dew Point 45 °F
Humidity 99%
Rainfall 0.31 in
Snow Depth Not available.
7:09 AM 6:57 PM
New Moon, 0% visible
METAR KFYV 011153Z 00000KT 10SM CLR 09/09 A3013 RMK AO2 SLP196 T00890089 10111 20083 53003 $
Pressure 30.11 in
Visibility 10.0 miles
Clouds Clear
Windchill 45 °F
Dew Point 45 °F
Humidity 99%
Rainfall 0.31 in
Snow Depth Not available.
7:09 AM 6:57 PM
New Moon, 0% visible
METAR KFYV 011153Z 00000KT 10SM CLR 09/09 A3013 RMK AO2 SLP196 T00890089 10111 20083 53003 $

10-Day Weather Forecast

Almanac

Astronomy

Oct. 01, 2016 Rise Set
Actual Time
Civil Twilight
Nautical Twilight
Astronomical Twilight
Moon
Length of Visible Light
Length of Day
Tomorrow will be .
, % of the Moon is Illuminated

Today's Extremes

State Highs State Lows

Community

WunderPhotos

Upload Photos

1,942,923 photos uploaded!

WunderBlog® & News

Nearby

Air Quality

  Air Quality AQ Index Pollutant
Not available.

Snow Depth

Station Depth Elevation

Earthquake Activity

City Distance Mag. Time & Date
Minimum magnitude displayed is 2.5.

Coastal Water Temperatures

Place Temperature

Stations

Nearby Weather Stations

Station Location Temp. Windchill Dew Point Humidity Wind Precip. Elev Updated Type
                   

Watches & Warnings

There are currently no watches in effect.